createdAt,value
2018-09-15T16:02:11.605Z,20.20
2018-09-15T16:04:39.777Z,20.40
2018-09-15T16:07:07.965Z,20.30
2018-09-15T16:09:36.306Z,20.30
2018-09-15T16:12:05.348Z,20.30
2018-09-15T16:14:33.529Z,20.40
2018-09-15T16:17:04.762Z,20.00
2018-09-15T16:19:32.981Z,20.40
2018-09-15T16:22:01.181Z,20.60
2018-09-15T16:29:25.288Z,21.00
2018-09-15T16:31:53.555Z,21.30
2018-09-15T16:34:21.730Z,21.50
2018-09-15T16:36:50.053Z,21.20
2018-09-15T16:39:18.220Z,21.20
2018-09-15T16:41:46.390Z,21.20
2018-09-15T16:44:14.560Z,21.30
2018-09-15T16:46:42.765Z,21.10
2018-09-15T16:49:11.000Z,20.90
2018-09-15T16:51:39.130Z,20.90
2018-09-15T16:54:07.524Z,20.50
2018-09-15T16:56:36.457Z,20.30
2018-09-15T16:59:04.640Z,20.20
2018-09-15T17:01:32.816Z,20.20
2018-09-15T17:04:01.070Z,19.80
2018-09-15T17:06:29.337Z,19.60
2018-09-15T17:08:57.508Z,19.60
2018-09-15T17:11:25.734Z,19.40
2018-09-15T17:18:49.853Z,19.00
2018-09-15T17:21:18.045Z,18.90
2018-09-15T17:23:46.213Z,18.50
2018-09-15T17:26:14.402Z,18.10
2018-09-15T17:28:42.605Z,18.00
2018-09-15T17:31:10.787Z,17.80
2018-09-15T17:36:06.924Z,17.30
2018-09-15T17:38:35.217Z,17.10
2018-09-15T17:43:31.358Z,16.80
2018-09-15T17:45:59.521Z,16.70
2018-09-15T17:48:27.703Z,16.50
2018-09-15T17:50:55.913Z,16.40
2018-09-15T17:58:20.042Z,16.10
2018-09-15T18:00:48.653Z,16.10
2018-09-15T18:05:44.801Z,15.90
2018-09-15T18:08:13.045Z,15.80
2018-09-15T18:15:37.153Z,15.70
2018-09-15T18:18:06.277Z,15.60
2018-09-15T18:20:34.452Z,15.60
2018-09-15T18:25:30.717Z,15.50
2018-09-15T18:27:59.080Z,15.50
2018-09-15T18:30:27.240Z,15.50
2018-09-15T18:32:55.429Z,15.50
2018-09-15T18:37:51.556Z,15.40
2018-09-15T18:40:19.762Z,15.30
2018-09-15T18:42:47.993Z,15.20
2018-09-15T18:45:16.141Z,15.20
2018-09-15T18:47:44.316Z,15.10
2018-09-15T18:52:40.441Z,15.10
2018-09-15T18:55:08.656Z,15.00
2018-09-15T19:00:04.781Z,14.90
2018-09-15T19:02:33.021Z,14.90
2018-09-15T19:05:01.237Z,14.90
2018-09-15T19:07:29.456Z,14.90
2018-09-15T19:09:57.663Z,14.80
2018-09-15T19:12:25.886Z,14.80
2018-09-15T19:17:22.140Z,14.80
2018-09-15T19:19:50.457Z,14.80
2018-09-15T19:22:18.701Z,14.60
2018-09-15T19:24:46.931Z,14.60
2018-09-15T19:27:15.143Z,14.60
2018-09-15T19:29:43.364Z,14.50
2018-09-15T19:32:11.563Z,14.50
2018-09-15T19:34:39.755Z,14.50
2018-09-15T19:44:31.838Z,14.40
2018-09-15T19:56:52.142Z,14.20
2018-09-15T19:59:21.314Z,14.20
2018-09-15T20:01:49.410Z,14.10
2018-09-15T20:09:13.625Z,13.90
2018-09-15T20:11:41.826Z,13.90
2018-09-15T20:14:10.127Z,13.80
2018-09-15T20:16:37.347Z,13.80
2018-09-15T20:19:04.584Z,13.70
2018-09-15T20:21:31.745Z,13.90
2018-09-15T20:23:59.929Z,13.80
2018-09-15T20:26:28.116Z,13.70
2018-09-15T20:28:56.330Z,13.70
2018-09-15T20:31:24.533Z,13.60
2018-09-15T20:33:52.724Z,13.60
2018-09-15T20:36:20.906Z,13.60
2018-09-15T20:38:49.109Z,13.50
2018-09-15T20:41:17.324Z,13.50
2018-09-15T20:43:45.541Z,13.50
2018-09-15T20:46:13.739Z,13.40
2018-09-15T20:48:41.937Z,13.30
2018-09-15T20:51:10.117Z,13.40
2018-09-15T20:53:38.309Z,13.30
2018-09-15T20:56:06.528Z,13.30
2018-09-15T20:58:34.702Z,13.20
2018-09-15T21:01:02.885Z,13.10
2018-09-15T21:06:00.133Z,13.10
2018-09-15T21:08:28.318Z,13.00
2018-09-15T21:13:24.909Z,12.90
2018-09-15T21:15:53.162Z,12.90
2018-09-15T21:20:49.330Z,12.90
2018-09-15T21:23:17.502Z,12.70
2018-09-15T21:25:45.731Z,12.70
2018-09-15T21:28:13.944Z,12.70
2018-09-15T21:30:42.177Z,12.70
2018-09-15T21:33:10.373Z,12.60
2018-09-15T21:35:38.550Z,12.60
2018-09-15T21:40:34.725Z,12.80
2018-09-15T21:43:02.928Z,12.90
2018-09-15T21:45:31.136Z,12.90
2018-09-15T21:47:59.335Z,12.80
2018-09-15T21:50:27.521Z,12.80
2018-09-15T21:52:55.757Z,12.70
2018-09-15T21:55:23.949Z,12.70
2018-09-15T21:57:52.196Z,12.60
